sensor_id;sensor_type;location;lat;lon;timestamp;pressure;altitude;pressure_sealevel;temperature;humidity
5574;BME280;2563;52.242;7.956;2024-01-10T00:02:19;102601.66;;;-6.67;100.00
5574;BME280;2563;52.242;7.956;2024-01-10T00:04:44;102592.91;;;-6.72;100.00
5574;BME280;2563;52.242;7.956;2024-01-10T00:07:10;102591.41;;;-6.70;100.00
5574;BME280;2563;52.242;7.956;2024-01-10T00:09:35;102587.91;;;-6.72;100.00
5574;BME280;2563;52.242;7.956;2024-01-10T00:12:01;102585.78;;;-6.67;100.00
5574;BME280;2563;52.242;7.956;2024-01-10T00:14:26;102584.25;;;-6.65;100.00
5574;BME280;2563;52.242;7.956;2024-01-10T00:16:51;102589.91;;;-6.68;100.00
5574;BME280;2563;52.242;7.956;2024-01-10T00:19:17;102584.63;;;-6.71;100.00
5574;BME280;2563;52.242;7.956;2024-01-10T00:21:42;102581.41;;;-6.70;100.00
5574;BME280;2563;52.242;7.956;2024-01-10T00:24:07;102570.25;;;-6.73;100.00
5574;BME280;2563;52.242;7.956;2024-01-10T00:26:33;102572.88;;;-6.72;100.00
5574;BME280;2563;52.242;7.956;2024-01-10T00:28:58;102570.88;;;-6.76;100.00
5574;BME280;2563;52.242;7.956;2024-01-10T00:31:23;102565.66;;;-6.79;100.00
5574;BME280;2563;52.242;7.956;2024-01-10T00:33:49;102568.16;;;-6.79;100.00
5574;BME280;2563;52.242;7.956;2024-01-10T00:36:14;102556.63;;;-6.87;100.00
5574;BME280;2563;52.242;7.956;2024-01-10T00:38:40;102561.91;;;-6.84;100.00
5574;BME280;2563;52.242;7.956;2024-01-10T00:41:05;102555.63;;;-6.79;100.00
5574;BME280;2563;52.242;7.956;2024-01-10T00:43:30;102556.91;;;-6.84;100.00
5574;BME280;2563;52.242;7.956;2024-01-10T00:45:56;102560.78;;;-6.88;100.00
5574;BME280;2563;52.242;7.956;2024-01-10T00:48:21;102556.63;;;-6.87;100.00
5574;BME280;2563;52.242;7.956;2024-01-10T00:50:46;102559.41;;;-6.94;100.00
5574;BME280;2563;52.242;7.956;2024-01-10T00:53:12;102555.19;;;-6.95;100.00
5574;BME280;2563;52.242;7.956;2024-01-10T00:55:38;102552.31;;;-7.00;100.00
5574;BME280;2563;52.242;7.956;2024-01-10T00:58:03;102553.44;;;-7.07;100.00
5574;BME280;2563;52.242;7.956;2024-01-10T01:00:29;102553.19;;;-7.10;100.00
5574;BME280;2563;52.242;7.956;2024-01-10T01:02:54;102560.47;;;-7.13;100.00
5574;BME280;2563;52.242;7.956;2024-01-10T01:05:20;102561.59;;;-7.19;100.00
5574;BME280;2563;52.242;7.956;2024-01-10T01:07:45;102553.34;;;-7.18;100.00
5574;BME280;2563;52.242;7.956;2024-01-10T01:10:11;102561.84;;;-7.16;100.00
5574;BME280;2563;52.242;7.956;2024-01-10T01:12:36;102550.84;;;-7.18;100.00
5574;BME280;2563;52.242;7.956;2024-01-10T01:15:03;102546.59;;;-7.19;100.00
5574;BME280;2563;52.242;7.956;2024-01-10T01:17:28;102545.97;;;-7.17;100.00
5574;BME280;2563;52.242;7.956;2024-01-10T01:19:54;102549.97;;;-7.09;100.00
5574;BME280;2563;52.242;7.956;2024-01-10T01:22:19;102547.84;;;-7.14;100.00
5574;BME280;2563;52.242;7.956;2024-01-10T01:24:45;102543.84;;;-7.12;100.00
5574;BME280;2563;52.242;7.956;2024-01-10T01:27:10;102545.81;;;-7.08;100.00
5574;BME280;2563;52.242;7.956;2024-01-10T01:29:35;102543.69;;;-7.03;100.00
5574;BME280;2563;52.242;7.956;2024-01-10T01:32:01;102534.56;;;-7.03;100.00
5574;BME280;2563;52.242;7.956;2024-01-10T01:34:26;102543.44;;;-7.07;100.00
5574;BME280;2563;52.242;7.956;2024-01-10T01:36:51;102542.19;;;-7.01;100.00
5574;BME280;2563;52.242;7.956;2024-01-10T01:39:18;102545.19;;;-7.06;100.00
5574;BME280;2563;52.242;7.956;2024-01-10T01:41:43;102545.81;;;-7.08;100.00
5574;BME280;2563;52.242;7.956;2024-01-10T01:44:08;102541.47;;;-7.11;100.00
5574;BME280;2563;52.242;7.956;2024-01-10T01:46:34;102544.06;;;-7.09;100.00
5574;BME280;2563;52.242;7.956;2024-01-10T01:49:00;102539.47;;;-7.15;100.00
5574;BME280;2563;52.242;7.956;2024-01-10T01:51:27;102541.97;;;-7.15;100.00
5574;BME280;2563;52.242;7.956;2024-01-10T01:53:55;102543.59;;;-7.15;100.00
5574;BME280;2563;52.242;7.956;2024-01-10T01:56:21;102538.81;;;-7.12;100.00
5574;BME280;2563;52.242;7.956;2024-01-10T01:58:48;102535.31;;;-7.14;100.00
5574;BME280;2563;52.242;7.956;2024-01-10T02:01:15;102540.50;;;-7.23;100.00
5574;BME280;2563;52.242;7.956;2024-01-10T02:03:40;102532.44;;;-7.19;100.00
5574;BME280;2563;52.242;7.956;2024-01-10T02:06:06;102527.44;;;-7.19;100.00
5574;BME280;2563;52.242;7.956;2024-01-10T02:08:33;102529.72;;;-7.22;100.00
5574;BME280;2563;52.242;7.956;2024-01-10T02:10:59;102519.31;;;-7.16;100.00
5574;BME280;2563;52.242;7.956;2024-01-10T02:13:25;102523.94;;;-7.21;100.00
5574;BME280;2563;52.242;7.956;2024-01-10T02:15:51;102525.94;;;-7.17;100.00
5574;BME280;2563;52.242;7.956;2024-01-10T02:18:17;102518.56;;;-7.15;100.00
5574;BME280;2563;52.242;7.956;2024-01-10T02:20:45;102516.44;;;-7.11;100.00
5574;BME280;2563;52.242;7.956;2024-01-10T02:23:10;102508.53;;;-7.05;100.00
5574;BME280;2563;52.242;7.956;2024-01-10T02:25:37;102500.78;;;-7.08;100.00
5574;BME280;2563;52.242;7.956;2024-01-10T02:28:02;102506.66;;;-7.08;100.00
5574;BME280;2563;52.242;7.956;2024-01-10T02:30:28;102502.41;;;-7.09;100.00
5574;BME280;2563;52.242;7.956;2024-01-10T02:32:54;102501.41;;;-7.11;100.00
5574;BME280;2563;52.242;7.956;2024-01-10T02:35:19;102495.78;;;-7.08;100.00
5574;BME280;2563;52.242;7.956;2024-01-10T02:37:44;102494.66;;;-7.12;100.00
5574;BME280;2563;52.242;7.956;2024-01-10T02:40:10;102490.13;;;-7.06;100.00
5574;BME280;2563;52.242;7.956;2024-01-10T02:42:36;102487.69;;;-7.16;100.00
5574;BME280;2563;52.242;7.956;2024-01-10T02:45:01;102489.91;;;-7.19;100.00
5574;BME280;2563;52.242;7.956;2024-01-10T02:47:26;102481.94;;;-7.25;100.00
5574;BME280;2563;52.242;7.956;2024-01-10T02:49:54;102487.94;;;-7.23;100.00
5574;BME280;2563;52.242;7.956;2024-01-10T02:52:19;102487.19;;;-7.22;100.00
5574;BME280;2563;52.242;7.956;2024-01-10T02:54:45;102487.19;;;-7.22;100.00
5574;BME280;2563;52.242;7.956;2024-01-10T02:57:10;102489.56;;;-7.23;100.00
5574;BME280;2563;52.242;7.956;2024-01-10T02:59:35;102488.69;;;-7.24;100.00
5574;BME280;2563;52.242;7.956;2024-01-10T03:02:01;102496.72;;;-7.38;100.00
5574;BME280;2563;52.242;7.956;2024-01-10T03:04:26;102495.72;;;-7.40;100.00
5574;BME280;2563;52.242;7.956;2024-01-10T03:06:51;102490.47;;;-7.43;100.00
5574;BME280;2563;52.242;7.956;2024-01-10T03:09:19;102502.25;;;-7.53;100.00
5574;BME280;2563;52.242;7.956;2024-01-10T03:11:44;102499.50;;;-7.56;100.00
5574;BME280;2563;52.242;7.956;2024-01-10T03:14:10;102496.75;;;-7.59;100.00
5574;BME280;2563;52.242;7.956;2024-01-10T03:16:37;102495.97;;;-7.47;100.00
5574;BME280;2563;52.242;7.956;2024-01-10T03:19:02;102502.47;;;-7.50;100.00
5574;BME280;2563;52.242;7.956;2024-01-10T03:21:28;102496.75;;;-7.59;100.00
5574;BME280;2563;52.242;7.956;2024-01-10T03:23:58;102497.25;;;-7.63;100.00
5574;BME280;2563;52.242;7.956;2024-01-10T03:26:24;102492.03;;;-7.66;100.00
5574;BME280;2563;52.242;7.956;2024-01-10T03:28:50;102491.00;;;-7.78;100.00
5574;BME280;2563;52.242;7.956;2024-01-10T03:31:16;102492.53;;;-7.80;100.00
5574;BME280;2563;52.242;7.956;2024-01-10T03:33:41;102491.00;;;-7.88;100.00
5574;BME280;2563;52.242;7.956;2024-01-10T03:36:09;102493.75;;;-7.85;100.00
5574;BME280;2563;52.242;7.956;2024-01-10T03:38:34;102484.75;;;-7.83;100.00
5574;BME280;2563;52.242;7.956;2024-01-10T03:41:00;102484.50;;;-7.76;100.00
5574;BME280;2563;52.242;7.956;2024-01-10T03:43:25;102490.03;;;-7.80;100.00
5574;BME280;2563;52.242;7.956;2024-01-10T03:45:50;102488.75;;;-7.85;100.00
5574;BME280;2563;52.242;7.956;2024-01-10T03:48:16;102480.00;;;-7.91;100.00
5574;BME280;2563;52.242;7.956;2024-01-10T03:50:41;102487.25;;;-7.83;100.00
5574;BME280;2563;52.242;7.956;2024-01-10T03:53:06;102477.28;;;-7.73;100.00
5574;BME280;2563;52.242;7.956;2024-01-10T03:55:32;102482.88;;;-7.76;100.00
5574;BME280;2563;52.242;7.956;2024-01-10T03:57:57;102477.03;;;-7.66;100.00
5574;BME280;2563;52.242;7.956;2024-01-10T04:00:22;102482.25;;;-7.63;100.00
5574;BME280;2563;52.242;7.956;2024-01-10T04:02:48;102473.00;;;-7.64;100.00
5574;BME280;2563;52.242;7.956;2024-01-10T04:05:13;102473.00;;;-7.64;100.00
5574;BME280;2563;52.242;7.956;2024-01-10T04:07:42;102476.38;;;-7.63;100.00
5574;BME280;2563;52.242;7.956;2024-01-10T04:10:12;102475.75;;;-7.61;100.00
5574;BME280;2563;52.242;7.956;2024-01-10T04:12:39;102474.00;;;-7.62;100.00
5574;BME280;2563;52.242;7.956;2024-01-10T04:15:05;102470.75;;;-7.61;100.00
5574;BME280;2563;52.242;7.956;2024-01-10T04:17:31;102465.50;;;-7.64;100.00
5574;BME280;2563;52.242;7.956;2024-01-10T04:19:57;102469.38;;;-7.67;100.00
5574;BME280;2563;52.242;7.956;2024-01-10T04:22:25;102474.00;;;-7.72;100.00
5574;BME280;2563;52.242;7.956;2024-01-10T04:24:51;102479.78;;;-7.73;100.00
5574;BME280;2563;52.242;7.956;2024-01-10T04:27:17;102470.00;;;-7.70;100.00
5574;BME280;2563;52.242;7.956;2024-01-10T04:29:43;102468.38;;;-7.70;100.00
5574;BME280;2563;52.242;7.956;2024-01-10T04:32:09;102461.75;;;-7.69;100.00
5574;BME280;2563;52.242;7.956;2024-01-10T04:34:34;102460.50;;;-7.74;100.00
5574;BME280;2563;52.242;7.956;2024-01-10T04:36:59;102458.25;;;-7.71;100.00
5574;BME280;2563;52.242;7.956;2024-01-10T04:39:25;102458.53;;;-7.68;100.00
5574;BME280;2563;52.242;7.956;2024-01-10T04:41:50;102458.53;;;-7.68;100.00
5574;BME280;2563;52.242;7.956;2024-01-10T04:44:16;102452.63;;;-7.68;100.00
5574;BME280;2563;52.242;7.956;2024-01-10T04:46:41;102447.13;;;-7.64;100.00
5574;BME280;2563;52.242;7.956;2024-01-10T04:49:07;102456.38;;;-7.63;100.00
5574;BME280;2563;52.242;7.956;2024-01-10T04:51:32;102444.25;;;-7.59;100.00
5574;BME280;2563;52.242;7.956;2024-01-10T04:53:58;102443.34;;;-7.59;100.00
5574;BME280;2563;52.242;7.956;2024-01-10T04:56:23;102453.50;;;-7.58;100.00
5574;BME280;2563;52.242;7.956;2024-01-10T04:58:49;102448.88;;;-7.63;100.00
5574;BME280;2563;52.242;7.956;2024-01-10T05:01:14;102437.72;;;-7.57;100.00
5574;BME280;2563;52.242;7.956;2024-01-10T05:03:40;102435.22;;;-7.57;100.00
5574;BME280;2563;52.242;7.956;2024-01-10T05:06:05;102437.09;;;-7.54;100.00
5574;BME280;2563;52.242;7.956;2024-01-10T05:08:31;102443.34;;;-7.59;100.00
5574;BME280;2563;52.242;7.956;2024-01-10T05:10:56;102434.63;;;-7.64;100.00
5574;BME280;2563;52.242;7.956;2024-01-10T05:13:22;102435.75;;;-7.61;100.00
5574;BME280;2563;52.242;7.956;2024-01-10T05:15:47;102428.75;;;-7.65;100.00
5574;BME280;2563;52.242;7.956;2024-01-10T05:18:12;102431.75;;;-7.69;100.00
5574;BME280;2563;52.242;7.956;2024-01-10T05:20:38;102430.50;;;-7.64;100.00
5574;BME280;2563;52.242;7.956;2024-01-10T05:23:03;102413.16;;;-7.73;100.00
5574;BME280;2563;52.242;7.956;2024-01-10T05:25:29;102417.63;;;-7.68;100.00
5574;BME280;2563;52.242;7.956;2024-01-10T05:27:54;102416.75;;;-7.69;100.00
5574;BME280;2563;52.242;7.956;2024-01-10T05:30:20;102432.50;;;-7.70;100.00
5574;BME280;2563;52.242;7.956;2024-01-10T05:32:45;102429.88;;;-7.72;100.00
5574;BME280;2563;52.242;7.956;2024-01-10T05:35:11;102423.97;;;-7.62;100.00
5574;BME280;2563;52.242;7.956;2024-01-10T05:37:36;102425.47;;;-7.64;100.00
5574;BME280;2563;52.242;7.956;2024-01-10T05:40:03;102430.75;;;-7.61;100.00
5574;BME280;2563;52.242;7.956;2024-01-10T05:42:31;102429.63;;;-7.64;100.00
5574;BME280;2563;52.242;7.956;2024-01-10T05:44:58;102432.34;;;-7.61;100.00
5574;BME280;2563;52.242;7.956;2024-01-10T05:47:23;102428.63;;;-7.56;100.00
5574;BME280;2563;52.242;7.956;2024-01-10T05:49:49;102426.25;;;-7.65;100.00
5574;BME280;2563;52.242;7.956;2024-01-10T05:52:14;102428.25;;;-7.61;100.00
5574;BME280;2563;52.242;7.956;2024-01-10T05:54:39;102427.72;;;-7.57;100.00
5574;BME280;2563;52.242;7.956;2024-01-10T05:57:05;102427.72;;;-7.57;100.00
5574;BME280;2563;52.242;7.956;2024-01-10T05:59:30;102431.13;;;-7.56;100.00
5574;BME280;2563;52.242;7.956;2024-01-10T06:01:56;102427.22;;;-7.53;100.00
5574;BME280;2563;52.242;7.956;2024-01-10T06:04:23;102420.75;;;-7.61;100.00
5574;BME280;2563;52.242;7.956;2024-01-10T06:06:49;102420.75;;;-7.61;100.00
5574;BME280;2563;52.242;7.956;2024-01-10T06:09:14;102415.50;;;-7.64;100.00
5574;BME280;2563;52.242;7.956;2024-01-10T06:11:41;102416.28;;;-7.75;100.00
5574;BME280;2563;52.242;7.956;2024-01-10T06:14:07;102412.25;;;-7.63;100.00
5574;BME280;2563;52.242;7.956;2024-01-10T06:16:32;102415.88;;;-7.70;100.00
5574;BME280;2563;52.242;7.956;2024-01-10T06:18:57;102416.66;;;-7.71;100.00
5574;BME280;2563;52.242;7.956;2024-01-10T06:21:23;102422.16;;;-7.75;100.00
5574;BME280;2563;52.242;7.956;2024-01-10T06:23:48;102412.78;;;-7.77;100.00
5574;BME280;2563;52.242;7.956;2024-01-10T06:26:13;102414.78;;;-7.73;100.00
5574;BME280;2563;52.242;7.956;2024-01-10T06:28:39;102416.75;;;-7.69;100.00
5574;BME280;2563;52.242;7.956;2024-01-10T06:31:04;102423.38;;;-7.70;100.00
5574;BME280;2563;52.242;7.956;2024-01-10T06:33:30;102422.78;;;-7.77;100.00
5574;BME280;2563;52.242;7.956;2024-01-10T06:35:55;102423.66;;;-7.77;100.00
5574;BME280;2563;52.242;7.956;2024-01-10T06:38:20;102401.00;;;-7.78;100.00
5574;BME280;2563;52.242;7.956;2024-01-10T06:40:48;102393.41;;;-7.80;100.00
5574;BME280;2563;52.242;7.956;2024-01-10T06:43:14;102402.78;;;-7.77;100.00
5574;BME280;2563;52.242;7.956;2024-01-10T06:45:39;102411.28;;;-7.85;100.00
5574;BME280;2563;52.242;7.956;2024-01-10T06:48:05;102421.91;;;-7.78;100.00
5574;BME280;2563;52.242;7.956;2024-01-10T06:50:31;102432.41;;;-7.92;100.00
5574;BME280;2563;52.242;7.956;2024-01-10T06:52:57;102428.31;;;-8.02;100.00
5574;BME280;2563;52.242;7.956;2024-01-10T06:55:22;102427.28;;;-7.94;100.00
5574;BME280;2563;52.242;7.956;2024-01-10T06:57:49;102427.53;;;-7.80;100.00
5574;BME280;2563;52.242;7.956;2024-01-10T07:00:19;102426.63;;;-7.81;100.00
5574;BME280;2563;52.242;7.956;2024-01-10T07:02:45;102425.78;;;-7.81;100.00
5574;BME280;2563;52.242;7.956;2024-01-10T07:05:10;102431.53;;;-7.82;100.00
5574;BME280;2563;52.242;7.956;2024-01-10T07:07:36;102434.41;;;-7.78;100.00
5574;BME280;2563;52.242;7.956;2024-01-10T07:10:02;102441.28;;;-7.75;100.00
5574;BME280;2563;52.242;7.956;2024-01-10T07:12:33;102443.53;;;-7.68;100.00
5574;BME280;2563;52.242;7.956;2024-01-10T07:14:59;102448.50;;;-7.68;100.00
5574;BME280;2563;52.242;7.956;2024-01-10T07:17:24;102447.16;;;-7.75;100.00
5574;BME280;2563;52.242;7.956;2024-01-10T07:19:50;102444.78;;;-7.73;100.00
5574;BME280;2563;52.242;7.956;2024-01-10T07:22:15;102454.50;;;-7.76;100.00
5574;BME280;2563;52.242;7.956;2024-01-10T07:24:41;102451.28;;;-7.75;100.00
5574;BME280;2563;52.242;7.956;2024-01-10T07:27:06;102441.66;;;-7.71;100.00
5574;BME280;2563;52.242;7.956;2024-01-10T07:29:33;102452.38;;;-7.72;100.00
5574;BME280;2563;52.242;7.956;2024-01-10T07:31:59;102455.03;;;-7.80;100.00
5574;BME280;2563;52.242;7.956;2024-01-10T07:34:24;102454.50;;;-7.76;100.00
5574;BME280;2563;52.242;7.956;2024-01-10T07:36:49;102460.66;;;-7.73;100.00
5574;BME280;2563;52.242;7.956;2024-01-10T07:39:15;102458.25;;;-7.71;100.00
5574;BME280;2563;52.242;7.956;2024-01-10T07:41:43;102453.00;;;-7.64;100.00
5574;BME280;2563;52.242;7.956;2024-01-10T07:44:08;102450.00;;;-7.70;100.00
5574;BME280;2563;52.242;7.956;2024-01-10T07:46:35;102450.75;;;-7.61;100.00
5574;BME280;2563;52.242;7.956;2024-01-10T07:49:02;102458.63;;;-7.56;100.00
5574;BME280;2563;52.242;7.956;2024-01-10T07:51:29;102461.13;;;-7.56;100.00
5574;BME280;2563;52.242;7.956;2024-01-10T07:53:55;102452.00;;;-7.56;100.00
5574;BME280;2563;52.242;7.956;2024-01-10T07:56:20;102463.63;;;-7.56;100.00
5574;BME280;2563;52.242;7.956;2024-01-10T07:58:45;102471.00;;;-7.58;100.00
5574;BME280;2563;52.242;7.956;2024-01-10T08:01:11;102474.50;;;-7.56;100.00
5574;BME280;2563;52.242;7.956;2024-01-10T08:03:36;102479.25;;;-7.49;100.00
5574;BME280;2563;52.242;7.956;2024-01-10T08:06:02;102478.38;;;-7.49;100.00
5574;BME280;2563;52.242;7.956;2024-01-10T08:08:28;102476.09;;;-7.46;100.00
5574;BME280;2563;52.242;7.956;2024-01-10T08:10:53;102473.25;;;-7.51;100.00
5574;BME280;2563;52.242;7.956;2024-01-10T08:13:19;102461.22;;;-7.44;100.00
5574;BME280;2563;52.242;7.956;2024-01-10T08:15:44;102460.69;;;-7.30;100.00
5574;BME280;2563;52.242;7.956;2024-01-10T08:18:10;102463.81;;;-7.33;100.00
5574;BME280;2563;52.242;7.956;2024-01-10T08:20:35;102463.44;;;-7.27;100.00
5574;BME280;2563;52.242;7.956;2024-01-10T08:23:01;102457.28;;;-7.20;100.00
5574;BME280;2563;52.242;7.956;2024-01-10T08:25:26;102456.38;;;-7.21;100.00
5574;BME280;2563;52.242;7.956;2024-01-10T08:27:51;102457.75;;;-7.14;100.00
5574;BME280;2563;52.242;7.956;2024-01-10T08:30:22;102458.13;;;-7.10;100.00
5574;BME280;2563;52.242;7.956;2024-01-10T08:32:47;102451.59;;;-7.08;100.00
5574;BME280;2563;52.242;7.956;2024-01-10T08:35:13;102459.59;;;-7.01;100.00
5574;BME280;2563;52.242;7.956;2024-01-10T08:37:39;102461.06;;;-6.93;100.00
5574;BME280;2563;52.242;7.956;2024-01-10T08:40:11;102450.00;;;-6.85;100.00
5574;BME280;2563;52.242;7.956;2024-01-10T08:42:39;102458.00;;;-6.79;100.00
5574;BME280;2563;52.242;7.956;2024-01-10T08:45:05;102455.31;;;-6.70;100.00
5574;BME280;2563;52.242;7.956;2024-01-10T08:47:30;102457.47;;;-6.75;100.00
5574;BME280;2563;52.242;7.956;2024-01-10T08:49:58;102454.69;;;-6.68;100.00
5574;BME280;2563;52.242;7.956;2024-01-10T08:52:23;102448.03;;;-6.67;100.00
5574;BME280;2563;52.242;7.956;2024-01-10T08:54:49;102446.41;;;-6.67;100.00
5574;BME280;2563;52.242;7.956;2024-01-10T08:57:14;102451.25;;;-6.58;100.00
5574;BME280;2563;52.242;7.956;2024-01-10T08:59:42;102457.56;;;-6.51;100.00
5574;BME280;2563;52.242;7.956;2024-01-10T09:02:10;102451.53;;;-6.43;100.00
5574;BME280;2563;52.242;7.956;2024-01-10T09:04:36;102451.75;;;-6.40;100.00
5574;BME280;2563;52.242;7.956;2024-01-10T09:07:01;102452.09;;;-6.35;100.00
5574;BME280;2563;52.242;7.956;2024-01-10T09:09:26;102454.09;;;-6.31;100.00
5574;BME280;2563;52.242;7.956;2024-01-10T09:11:52;102448.00;;;-6.23;100.00
5574;BME280;2563;52.242;7.956;2024-01-10T09:14:17;102458.59;;;-6.15;100.00
5574;BME280;2563;52.242;7.956;2024-01-10T09:16:42;102451.84;;;-6.16;100.00
5574;BME280;2563;52.242;7.956;2024-01-10T09:19:08;102457.19;;;-6.12;100.00
5574;BME280;2563;52.242;7.956;2024-01-10T09:21:34;102453.72;;;-6.02;100.00
5574;BME280;2563;52.242;7.956;2024-01-10T09:24:00;102458.22;;;-5.98;100.00
5574;BME280;2563;52.242;7.956;2024-01-10T09:26:25;102457.88;;;-5.91;100.00
5574;BME280;2563;52.242;7.956;2024-01-10T09:28:50;102464.00;;;-5.75;100.00
5574;BME280;2563;52.242;7.956;2024-01-10T09:31:16;102467.84;;;-5.69;100.00
5574;BME280;2563;52.242;7.956;2024-01-10T09:33:41;102461.06;;;-5.58;100.00
5574;BME280;2563;52.242;7.956;2024-01-10T09:36:07;102466.22;;;-5.45;100.00
5574;BME280;2563;52.242;7.956;2024-01-10T09:38:36;102457.59;;;-5.25;100.00
5574;BME280;2563;52.242;7.956;2024-01-10T09:41:02;102454.00;;;-5.05;100.00
5574;BME280;2563;52.242;7.956;2024-01-10T09:43:30;102459.69;;;-5.07;100.00
5574;BME280;2563;52.242;7.956;2024-01-10T09:45:58;102453.09;;;-4.94;100.00
5574;BME280;2563;52.242;7.956;2024-01-10T09:48:25;102455.13;;;-4.76;100.00
5574;BME280;2563;52.242;7.956;2024-01-10T09:50:51;102451.84;;;-4.75;100.00
5574;BME280;2563;52.242;7.956;2024-01-10T09:53:22;102459.88;;;-4.56;100.00
5574;BME280;2563;52.242;7.956;2024-01-10T09:55:49;102452.09;;;-4.47;100.00
5574;BME280;2563;52.242;7.956;2024-01-10T09:58:14;102444.50;;;-4.35;100.00
5574;BME280;2563;52.242;7.956;2024-01-10T10:00:40;102438.22;;;-4.29;100.00
5574;BME280;2563;52.242;7.956;2024-01-10T10:03:09;102441.63;;;-4.28;100.00
5574;BME280;2563;52.242;7.956;2024-01-10T10:05:41;102444.03;;;-4.30;100.00
5574;BME280;2563;52.242;7.956;2024-01-10T10:08:07;102446.84;;;-4.25;100.00
5574;BME280;2563;52.242;7.956;2024-01-10T10:10:34;102452.09;;;-4.22;100.00
5574;BME280;2563;52.242;7.956;2024-01-10T10:13:00;102451.72;;;-4.15;100.00
5574;BME280;2563;52.242;7.956;2024-01-10T10:15:25;102441.28;;;-4.08;100.00
5574;BME280;2563;52.242;7.956;2024-01-10T10:17:54;102434.16;;;-4.01;100.00
5574;BME280;2563;52.242;7.956;2024-01-10T10:20:23;102425.47;;;-3.93;100.00
5574;BME280;2563;52.242;7.956;2024-01-10T10:23:06;102437.75;;;-3.98;100.00
5574;BME280;2563;52.242;7.956;2024-01-10T10:25:44;102429.50;;;-3.95;100.00
5574;BME280;2563;52.242;7.956;2024-01-10T10:28:10;102433.06;;;-4.05;100.00
5574;BME280;2563;52.242;7.956;2024-01-10T10:30:35;102424.06;;;-4.15;100.00
5574;BME280;2563;52.242;7.956;2024-01-10T10:33:02;102425.41;;;-4.20;100.00
5574;BME280;2563;52.242;7.956;2024-01-10T10:35:27;102426.50;;;-4.16;100.00
5574;BME280;2563;52.242;7.956;2024-01-10T10:37:53;102423.94;;;-3.65;100.00
5574;BME280;2563;52.242;7.956;2024-01-10T10:40:20;102407.78;;;-2.59;100.00
5574;BME280;2563;52.242;7.956;2024-01-10T10:42:47;102409.69;;;-1.52;100.00
5574;BME280;2563;52.242;7.956;2024-01-10T10:45:17;102411.19;;;-2.15;100.00
5574;BME280;2563;52.242;7.956;2024-01-10T10:47:44;102413.59;;;-2.31;100.00
5574;BME280;2563;52.242;7.956;2024-01-10T10:50:21;102418.81;;;-3.26;100.00
5574;BME280;2563;52.242;7.956;2024-01-10T10:52:48;102423.94;;;-3.11;100.00
5574;BME280;2563;52.242;7.956;2024-01-10T10:55:16;102405.63;;;-1.95;100.00
5574;BME280;2563;52.242;7.956;2024-01-10T10:57:44;102412.22;;;-1.21;100.00
5574;BME280;2563;52.242;7.956;2024-01-10T11:00:11;102399.22;;;-1.12;100.00
5574;BME280;2563;52.242;7.956;2024-01-10T11:02:40;102394.06;;;-1.76;100.00
5574;BME280;2563;52.242;7.956;2024-01-10T11:05:07;102396.22;;;-2.12;100.00
5574;BME280;2563;52.242;7.956;2024-01-10T11:07:35;102395.75;;;-1.45;100.00
5574;BME280;2563;52.242;7.956;2024-01-10T11:10:01;102408.56;;;-2.17;100.00
5574;BME280;2563;52.242;7.956;2024-01-10T11:15:06;102411.19;;;-1.85;100.00
5574;BME280;2563;52.242;7.956;2024-01-10T11:18:02;102385.69;;;1.32;100.00
5574;BME280;2563;52.242;7.956;2024-01-10T11:25:45;102382.63;;;2.22;100.00
5574;BME280;2563;52.242;7.956;2024-01-10T11:28:12;102376.75;;;2.02;100.00
5574;BME280;2563;52.242;7.956;2024-01-10T11:30:48;102373.47;;;2.25;100.00
5574;BME280;2563;52.242;7.956;2024-01-10T11:38:41;102362.78;;;2.13;100.00
5574;BME280;2563;52.242;7.956;2024-01-10T11:41:06;102358.66;;;3.29;100.00
5574;BME280;2563;52.242;7.956;2024-01-10T11:43:33;102352.63;;;3.03;100.00
5574;BME280;2563;52.242;7.956;2024-01-10T11:46:00;102347.97;;;2.91;100.00
5574;BME280;2563;52.242;7.956;2024-01-10T11:48:27;102352.53;;;2.77;100.00
5574;BME280;2563;52.242;7.956;2024-01-10T11:50:53;102351.16;;;2.63;100.00
5574;BME280;2563;52.242;7.956;2024-01-10T11:53:38;102338.63;;;3.14;100.00
5574;BME280;2563;52.242;7.956;2024-01-10T11:56:13;102336.50;;;2.79;100.00
5574;BME280;2563;52.242;7.956;2024-01-10T12:01:22;102355.38;;;1.16;100.00
5574;BME280;2563;52.242;7.956;2024-01-10T12:03:51;102356.19;;;0.40;100.00
5574;BME280;2563;52.242;7.956;2024-01-10T12:06:17;102356.63;;;0.87;100.00
5574;BME280;2563;52.242;7.956;2024-01-10T12:08:43;102341.66;;;1.51;100.00
5574;BME280;2563;52.242;7.956;2024-01-10T12:11:08;102335.03;;;0.57;100.00
5574;BME280;2563;52.242;7.956;2024-01-10T12:13:34;102330.69;;;2.15;100.00
5574;BME280;2563;52.242;7.956;2024-01-10T12:15:59;102321.81;;;2.71;100.00
5574;BME280;2563;52.242;7.956;2024-01-10T12:18:25;102319.19;;;2.23;100.00
5574;BME280;2563;52.242;7.956;2024-01-10T12:20:51;102311.81;;;3.24;100.00
5574;BME280;2563;52.242;7.956;2024-01-10T12:23:17;102307.88;;;3.08;100.00
5574;BME280;2563;52.242;7.956;2024-01-10T12:25:42;102309.00;;;2.68;100.00
5574;BME280;2563;52.242;7.956;2024-01-10T12:28:07;102312.25;;;3.12;100.00
5574;BME280;2563;52.242;7.956;2024-01-10T12:30:33;102311.03;;;2.54;100.00
5574;BME280;2563;52.242;7.956;2024-01-10T12:33:00;102319.94;;;2.21;100.00
5574;BME280;2563;52.242;7.956;2024-01-10T12:35:25;102310.41;;;2.38;100.00
5574;BME280;2563;52.242;7.956;2024-01-10T12:37:57;102323.41;;;2.02;100.00
5574;BME280;2563;52.242;7.956;2024-01-10T12:40:22;102321.00;;;2.27;100.00
5574;BME280;2563;52.242;7.956;2024-01-10T12:42:47;102309.59;;;2.39;100.00
5574;BME280;2563;52.242;7.956;2024-01-10T12:45:25;102318.63;;;1.88;100.00
5574;BME280;2563;52.242;7.956;2024-01-10T12:47:53;102311.88;;;3.51;100.00
5574;BME280;2563;52.242;7.956;2024-01-10T12:50:19;102313.41;;;3.46;100.00
5574;BME280;2563;52.242;7.956;2024-01-10T12:52:44;102320.00;;;2.45;100.00
5574;BME280;2563;52.242;7.956;2024-01-10T12:55:10;102328.72;;;2.08;100.00
5574;BME280;2563;52.242;7.956;2024-01-10T12:57:36;102322.88;;;2.10;100.00
5574;BME280;2563;52.242;7.956;2024-01-10T13:00:01;102319.38;;;1.65;100.00
5574;BME280;2563;52.242;7.956;2024-01-10T13:02:32;102326.66;;;1.36;100.00
5574;BME280;2563;52.242;7.956;2024-01-10T13:05:00;102333.66;;;1.03;100.00
5574;BME280;2563;52.242;7.956;2024-01-10T13:07:26;102332.69;;;0.25;100.00
5574;BME280;2563;52.242;7.956;2024-01-10T13:09:52;102338.47;;;-0.14;100.00
5574;BME280;2563;52.242;7.956;2024-01-10T13:12:19;102349.72;;;-0.25;100.00
5574;BME280;2563;52.242;7.956;2024-01-10T13:14:45;102341.88;;;-0.48;100.00